Time;durP1;ratioP1;P1;durP2;ratioP2;P2;SDS_P1;SDS_P2;PMS_P1;PMS_P2;Temp;Humidity;BMP_temperature;BMP_pressure;BME280_temperature;BME280_humidity;BME280_pressure;Samples;Min_cycle;Max_cycle;Signal;HPM_P1;HPM_P2
2022/04/07 00:02:12;;;;;;;1.10;1.10;;;13.10;99.90;;;;;;5056848;28;20226;-88
2022/04/07 00:04:40;;;;;;;1.88;1.25;;;12.90;99.90;;;;;;5063613;28;20222;-88
2022/04/07 00:07:09;;;;;;;4.00;1.20;;;12.80;99.90;;;;;;5068737;28;20210;-89
2022/04/07 00:09:37;;;;;;;1.35;1.13;;;12.60;99.90;;;;;;5070220;28;20201;-89
2022/04/07 00:12:06;;;;;;;1.20;1.10;;;12.50;99.90;;;;;;5053720;28;20329;-89
2022/04/07 00:14:37;;;;;;;0.73;0.73;;;12.30;99.90;;;;;;5060369;28;20213;-89
2022/04/07 00:17:08;;;;;;;1.27;1.10;;;12.30;99.90;;;;;;5071977;28;20213;-90
2022/04/07 00:19:37;;;;;;;2.05;1.35;;;12.20;99.90;;;;;;5069778;28;20212;-91
2022/04/07 00:22:06;;;;;;;1.38;1.27;;;12.10;99.90;;;;;;5053539;28;20249;-90
2022/04/07 00:24:35;;;;;;;3.75;1.58;;;12.00;99.90;;;;;;5053309;28;20287;-89
2022/04/07 00:27:03;;;;;;;3.95;1.52;;;11.90;99.90;;;;;;5052629;28;20210;-88
2022/04/07 00:29:33;;;;;;;1.25;1.15;;;11.80;99.90;;;;;;5052720;28;20233;-88
2022/04/07 00:32:05;;;;;;;2.42;1.30;;;11.70;99.90;;;;;;5052609;28;20307;-88
2022/04/07 00:34:36;;;;;;;0.90;0.90;;;11.60;99.90;;;;;;5052829;28;20205;-89
2022/04/07 00:37:04;;;;;;;0.80;0.80;;;11.60;99.90;;;;;;5052531;28;20202;-87
2022/04/07 00:39:34;;;;;;;1.23;1.13;;;11.60;99.90;;;;;;5052211;28;20202;-88
2022/04/07 00:42:03;;;;;;;1.05;1.00;;;11.50;99.90;;;;;;5052081;28;20222;-88
2022/04/07 00:44:31;;;;;;;1.35;1.27;;;11.40;99.90;;;;;;5052145;28;20209;-88
2022/04/07 00:47:00;;;;;;;1.13;1.13;;;11.40;99.90;;;;;;5052823;28;20217;-88
2022/04/07 00:49:28;;;;;;;0.77;0.77;;;11.40;99.90;;;;;;5052280;28;20206;-88
2022/04/07 00:51:58;;;;;;;0.90;0.90;;;11.50;99.90;;;;;;5052139;28;20229;-88
2022/04/07 00:54:27;;;;;;;0.60;0.60;;;11.60;99.90;;;;;;5052632;28;20304;-88
2022/04/07 00:56:57;;;;;;;1.05;0.90;;;11.70;99.90;;;;;;5052840;28;20205;-88
2022/04/07 00:59:25;;;;;;;0.77;0.77;;;11.80;99.90;;;;;;5053310;28;20206;-88
2022/04/07 01:01:54;;;;;;;0.93;0.93;;;11.90;99.90;;;;;;5053330;28;20256;-89
2022/04/07 01:04:24;;;;;;;0.52;0.52;;;11.90;99.90;;;;;;5052680;28;20225;-89
2022/04/07 01:06:52;;;;;;;0.93;0.93;;;12.00;99.90;;;;;;5052518;28;20209;-88
2022/04/07 01:09:22;;;;;;;0.50;0.50;;;12.00;99.90;;;;;;5057299;28;20225;-89
2022/04/07 01:11:52;;;;;;;0.73;0.73;;;12.00;99.90;;;;;;5052725;28;20232;-88
2022/04/07 01:14:21;;;;;;;0.63;0.63;;;11.90;99.90;;;;;;5052234;28;20279;-89
2022/04/07 01:16:49;;;;;;;0.90;0.90;;;11.90;99.90;;;;;;5055735;28;20217;-89
2022/04/07 01:19:18;;;;;;;1.10;1.00;;;12.00;99.90;;;;;;5055866;28;20205;-88
2022/04/07 01:21:47;;;;;;;0.85;0.85;;;11.90;99.90;;;;;;5055504;28;20249;-89
2022/04/07 01:24:18;;;;;;;0.65;0.65;;;11.90;99.90;;;;;;5056379;28;20220;-89
2022/04/07 01:26:48;;;;;;;0.50;0.50;;;11.90;99.90;;;;;;5059218;28;20221;-89
2022/04/07 01:29:19;;;;;;;0.80;0.80;;;11.90;99.90;;;;;;5061571;28;20320;-90
2022/04/07 01:31:47;;;;;;;0.60;0.60;;;11.80;99.90;;;;;;5055503;28;20223;-89
2022/04/07 01:34:19;;;;;;;0.77;0.77;;;11.80;99.90;;;;;;5055891;28;20247;-89
2022/04/07 01:36:52;;;;;;;0.60;0.60;;;11.80;99.90;;;;;;5055696;28;20209;-89
2022/04/07 01:39:26;;;;;;;0.85;0.85;;;11.70;99.90;;;;;;5055809;28;20226;-89
2022/04/07 01:41:57;;;;;;;0.65;0.63;;;11.80;99.90;;;;;;5055588;28;20251;-89
2022/04/07 01:44:27;;;;;;;0.40;0.40;;;11.80;99.90;;;;;;5056015;28;20201;-89
2022/04/07 01:46:57;;;;;;;0.73;0.73;;;11.80;99.90;;;;;;5055604;28;20242;-89
2022/04/07 01:49:26;;;;;;;0.60;0.60;;;11.90;99.90;;;;;;5055698;28;20236;-89
2022/04/07 01:51:54;;;;;;;0.35;0.35;;;11.90;99.90;;;;;;5055216;28;20252;-89
2022/04/07 01:54:23;;;;;;;0.40;0.40;;;11.90;99.90;;;;;;5055497;28;20262;-89
2022/04/07 01:56:52;;;;;;;1.08;0.90;;;11.90;99.90;;;;;;5055311;28;20197;-90
2022/04/07 01:59:22;;;;;;;0.50;0.50;;;12.00;99.90;;;;;;5055741;28;20206;-89
2022/04/07 02:01:51;;;;;;;0.28;0.28;;;12.00;99.90;;;;;;5054978;28;20326;-88
2022/04/07 02:04:19;;;;;;;1.75;0.90;;;12.00;99.90;;;;;;5055071;28;20234;-90
2022/04/07 02:06:47;;;;;;;0.40;0.40;;;12.00;99.90;;;;;;5055220;28;20214;-89
2022/04/07 02:09:16;;;;;;;3.08;0.95;;;12.00;99.90;;;;;;5055021;28;20205;-89
2022/04/07 02:11:45;;;;;;;0.68;0.60;;;12.00;99.90;;;;;;5054563;28;20252;-89
2022/04/07 02:14:13;;;;;;;0.55;0.55;;;12.10;99.90;;;;;;5054893;28;20210;-89
2022/04/07 02:16:43;;;;;;;0.60;0.60;;;12.10;99.90;;;;;;5055033;28;20237;-89
2022/04/07 02:19:12;;;;;;;0.75;0.75;;;12.10;99.90;;;;;;5054684;28;20210;-89
2022/04/07 02:21:40;;;;;;;0.57;0.57;;;12.00;99.90;;;;;;5054681;28;20233;-91
2022/04/07 02:24:10;;;;;;;2.55;0.57;;;11.80;99.90;;;;;;5054393;28;20233;-90
2022/04/07 02:26:39;;;;;;;0.35;0.35;;;11.70;99.90;;;;;;5053813;28;20222;-90
2022/04/07 02:29:07;;;;;;;0.50;0.50;;;11.60;99.90;;;;;;5054836;28;20214;-90
2022/04/07 02:31:36;;;;;;;0.68;0.68;;;11.50;99.90;;;;;;5054975;28;20256;-90
2022/04/07 02:34:06;;;;;;;0.50;0.50;;;11.40;99.90;;;;;;5057275;28;20228;-90
2022/04/07 02:36:35;;;;;;;0.40;0.40;;;11.30;99.90;;;;;;5057513;28;20198;-90
2022/04/07 02:39:03;;;;;;;0.50;0.50;;;11.40;99.90;;;;;;5057283;28;20206;-90
2022/04/07 02:41:33;;;;;;;0.28;0.28;;;11.40;99.90;;;;;;5054762;28;20206;-90
2022/04/07 02:44:03;;;;;;;0.35;0.35;;;11.40;99.90;;;;;;5054472;28;20212;-90
2022/04/07 02:46:31;;;;;;;0.43;0.43;;;11.30;99.90;;;;;;5054040;28;20217;-90
2022/04/07 02:49:00;;;;;;;0.30;0.30;;;11.30;99.90;;;;;;5054115;28;20202;-91
2022/04/07 02:51:31;;;;;;;0.35;0.35;;;11.30;99.90;;;;;;5054186;28;20212;-90
2022/04/07 02:53:59;;;;;;;3.67;0.70;;;11.20;99.90;;;;;;5054337;28;20198;-91
2022/04/07 02:56:29;;;;;;;0.55;0.55;;;11.10;99.90;;;;;;5054302;28;20210;-92
2022/04/07 02:58:58;;;;;;;0.50;0.50;;;11.00;99.90;;;;;;5053942;28;20270;-91
2022/04/07 03:01:29;;;;;;;0.60;0.45;;;10.90;99.90;;;;;;5053874;28;20229;-92
2022/04/07 03:03:59;;;;;;;0.30;0.30;;;10.80;99.90;;;;;;5054221;28;20221;-91
2022/04/07 03:06:29;;;;;;;0.30;0.30;;;10.70;99.90;;;;;;5053865;28;20257;-91
2022/04/07 03:08:57;;;;;;;0.80;0.80;;;10.70;99.90;;;;;;5054348;28;20209;-91
2022/04/07 03:11:26;;;;;;;0.52;0.45;;;10.70;99.90;;;;;;5053704;28;20201;-91
2022/04/07 03:13:55;;;;;;;1.15;1.05;;;10.60;99.90;;;;;;5053841;28;20205;-91
2022/04/07 03:16:23;;;;;;;0.80;0.80;;;10.60;99.90;;;;;;5053388;28;20217;-90
2022/04/07 03:18:50;;;;;;;0.73;0.73;;;10.50;99.90;;;;;;5053804;28;20198;-90
2022/04/07 03:21:19;;;;;;;0.55;0.55;;;10.50;99.90;;;;;;5053769;28;20202;-90
2022/04/07 03:23:48;;;;;;;0.70;0.70;;;10.40;99.90;;;;;;5053314;28;20256;-89
2022/04/07 03:26:17;;;;;;;0.60;0.60;;;10.40;99.90;;;;;;5053368;28;20301;-89
2022/04/07 03:28:45;;;;;;;1.10;1.00;;;10.30;99.90;;;;;;5053102;28;20293;-89
2022/04/07 03:31:14;;;;;;;0.93;0.90;;;10.30;99.90;;;;;;5053416;28;20210;-88
2022/04/07 03:33:42;;;;;;;0.60;0.60;;;10.20;99.90;;;;;;5053179;28;20226;-89
2022/04/07 03:36:10;;;;;;;0.73;0.60;;;10.20;99.90;;;;;;5052881;28;20257;-89
2022/04/07 03:38:39;;;;;;;0.73;0.73;;;10.20;99.90;;;;;;5052245;28;20227;-89
2022/04/07 03:41:09;;;;;;;0.73;0.73;;;10.10;99.90;;;;;;5052628;28;20209;-89
2022/04/07 03:43:37;;;;;;;1.02;0.98;;;10.10;99.90;;;;;;5052988;28;20249;-88
2022/04/07 03:46:05;;;;;;;0.77;0.77;;;10.10;99.90;;;;;;5053228;28;20292;-88
2022/04/07 03:48:34;;;;;;;0.55;0.55;;;10.10;99.90;;;;;;5053041;28;20210;-87
2022/04/07 03:51:02;;;;;;;0.68;0.68;;;10.00;99.90;;;;;;5052674;28;20283;-86
2022/04/07 03:53:31;;;;;;;0.50;0.50;;;10.00;99.90;;;;;;5052846;28;20245;-86
2022/04/07 03:55:59;;;;;;;0.70;0.70;;;10.00;99.90;;;;;;5052827;28;20226;-85
2022/04/07 03:58:30;;;;;;;0.65;0.65;;;10.00;99.90;;;;;;5052657;28;20304;-87
2022/04/07 04:00:59;;;;;;;0.80;0.80;;;10.00;99.90;;;;;;5052509;28;20236;-86
2022/04/07 04:03:28;;;;;;;0.77;0.77;;;10.00;99.90;;;;;;5052681;28;20324;-86
2022/04/07 04:05:56;;;;;;;0.82;0.82;;;9.90;99.90;;;;;;5052424;28;20206;-86
2022/04/07 04:08:24;;;;;;;0.73;0.73;;;9.90;99.90;;;;;;5051950;28;20257;-85
2022/04/07 04:10:53;;;;;;;0.75;0.75;;;9.90;99.90;;;;;;5052126;28;20230;-86
2022/04/07 04:13:21;;;;;;;0.57;0.57;;;9.90;99.90;;;;;;5052065;28;20241;-86
2022/04/07 04:15:51;;;;;;;1.08;0.57;;;9.80;99.90;;;;;;5052559;28;20305;-86
2022/04/07 04:18:19;;;;;;;0.80;0.80;;;9.80;99.90;;;;;;5052311;28;20222;-86
2022/04/07 04:20:48;;;;;;;0.60;0.60;;;9.80;99.90;;;;;;5052004;28;20225;-86
2022/04/07 04:23:16;;;;;;;0.70;0.70;;;9.80;99.90;;;;;;5052397;28;20225;-86
2022/04/07 04:25:46;;;;;;;1.45;1.20;;;9.80;99.90;;;;;;5052439;28;20197;-86
2022/04/07 04:28:14;;;;;;;7.20;1.13;;;9.80;99.90;;;;;;5052085;28;20271;-86
2022/04/07 04:30:43;;;;;;;0.85;0.85;;;9.90;99.90;;;;;;5052015;28;20228;-86
2022/04/07 04:33:13;;;;;;;0.70;0.70;;;9.80;99.90;;;;;;5052108;28;20308;-86
2022/04/07 04:35:41;;;;;;;0.60;0.60;;;9.80;99.90;;;;;;5052148;28;20229;-86
2022/04/07 04:38:09;;;;;;;1.25;1.00;;;9.80;99.90;;;;;;5052304;28;20236;-86
2022/04/07 04:40:38;;;;;;;0.80;0.80;;;9.90;99.90;;;;;;5052268;28;20426;-87
2022/04/07 04:43:06;;;;;;;0.73;0.73;;;9.90;99.90;;;;;;5052314;28;20314;-87
2022/04/07 04:45:34;;;;;;;1.05;1.05;;;9.90;99.90;;;;;;5052195;28;20252;-87
2022/04/07 04:48:03;;;;;;;0.65;0.65;;;9.90;99.90;;;;;;5052081;28;20309;-86
2022/04/07 04:50:33;;;;;;;0.70;0.70;;;9.90;99.90;;;;;;5054832;28;20293;-87
2022/04/07 04:53:01;;;;;;;0.85;0.85;;;10.00;99.90;;;;;;5056271;28;20222;-87
2022/04/07 04:55:30;;;;;;;0.98;0.63;;;10.00;99.90;;;;;;5056315;28;20281;-87
2022/04/07 04:57:58;;;;;;;1.00;1.00;;;10.00;99.90;;;;;;5056365;28;20387;-87
2022/04/07 05:00:27;;;;;;;0.73;0.73;;;10.00;99.90;;;;;;5056041;28;20288;-87
2022/04/07 05:02:55;;;;;;;1.30;0.75;;;10.00;99.90;;;;;;5056061;28;20229;-87
2022/04/07 05:05:24;;;;;;;0.60;0.60;;;10.00;99.90;;;;;;5056293;28;20205;-87
2022/04/07 05:07:54;;;;;;;1.33;0.93;;;10.10;99.90;;;;;;5056705;28;20281;-87
2022/04/07 05:10:22;;;;;;;0.82;0.82;;;10.10;99.90;;;;;;5056653;28;20244;-86
2022/04/07 05:12:50;;;;;;;0.95;0.95;;;10.20;99.90;;;;;;5055931;28;20222;-86
2022/04/07 05:15:19;;;;;;;0.45;0.45;;;10.20;99.90;;;;;;5059209;28;20209;-86
2022/04/07 05:17:49;;;;;;;0.85;0.85;;;10.20;99.90;;;;;;5056263;28;20210;-87
2022/04/07 05:20:18;;;;;;;0.57;0.57;;;10.20;99.90;;;;;;5056105;28;20201;-87
2022/04/07 05:22:47;;;;;;;3.22;1.15;;;10.30;99.90;;;;;;5056528;28;20308;-87
2022/04/07 05:25:18;;;;;;;0.68;0.68;;;10.30;99.90;;;;;;5055723;28;20293;-87
2022/04/07 05:27:46;;;;;;;0.80;0.80;;;10.30;99.90;;;;;;5056609;28;20304;-87
2022/04/07 05:30:16;;;;;;;0.50;0.50;;;10.40;99.90;;;;;;5055961;28;20249;-87
2022/04/07 05:32:44;;;;;;;0.80;0.80;;;10.40;99.90;;;;;;5057616;28;20245;-87
2022/04/07 05:35:13;;;;;;;0.85;0.85;;;10.40;99.90;;;;;;5058249;28;20206;-87
2022/04/07 05:37:42;;;;;;;0.80;0.80;;;10.50;99.90;;;;;;5056043;28;20194;-87
2022/04/07 05:40:13;;;;;;;1.00;1.00;;;10.50;99.90;;;;;;5055733;28;20202;-87
2022/04/07 05:42:42;;;;;;;0.95;0.95;;;10.50;99.90;;;;;;5054940;28;20312;-88
2022/04/07 05:45:11;;;;;;;0.70;0.70;;;10.50;99.90;;;;;;5055231;28;20233;-88
2022/04/07 05:47:40;;;;;;;1.17;1.10;;;10.50;99.90;;;;;;5055324;28;20232;-88
2022/04/07 05:50:10;;;;;;;1.10;1.05;;;10.50;99.90;;;;;;5055593;28;20202;-88
2022/04/07 05:52:38;;;;;;;0.88;0.88;;;10.50;99.90;;;;;;5055288;28;20222;-88
2022/04/07 05:55:08;;;;;;;1.25;1.17;;;10.50;99.90;;;;;;5055500;28;20230;-88
2022/04/07 05:57:36;;;;;;;2.42;1.35;;;10.60;99.90;;;;;;5055209;28;20201;-88
2022/04/07 06:00:10;;;;;;;0.90;0.90;;;10.60;99.90;;;;;;5055090;28;20229;-88
2022/04/07 06:02:38;;;;;;;0.82;0.82;;;10.60;99.90;;;;;;5054261;28;20250;-87
2022/04/07 06:05:08;;;;;;;1.05;0.82;;;10.60;99.90;;;;;;5055213;28;20289;-88
2022/04/07 06:07:38;;;;;;;1.40;1.27;;;10.70;99.90;;;;;;5055098;28;20253;-87
2022/04/07 06:10:07;;;;;;;1.38;1.27;;;10.70;99.90;;;;;;5054829;28;20205;-87
2022/04/07 06:12:36;;;;;;;1.33;1.27;;;10.70;99.90;;;;;;5054711;28;20249;-88
2022/04/07 06:15:07;;;;;;;1.05;1.05;;;10.70;99.90;;;;;;5054924;28;20301;-89
2022/04/07 06:17:36;;;;;;;1.38;1.23;;;10.80;99.90;;;;;;5054451;28;20296;-88
2022/04/07 06:20:06;;;;;;;1.15;1.15;;;10.80;99.90;;;;;;5054737;28;20198;-88
2022/04/07 06:22:34;;;;;;;2.05;1.42;;;10.90;99.90;;;;;;5054367;28;20322;-89
2022/04/07 06:25:03;;;;;;;1.33;1.23;;;10.90;99.90;;;;;;5054512;28;20221;-89
2022/04/07 06:27:35;;;;;;;1.23;1.10;;;11.00;99.90;;;;;;5054548;28;20202;-89
2022/04/07 06:30:07;;;;;;;1.10;1.00;;;11.00;99.90;;;;;;5054260;28;20210;-89
2022/04/07 06:32:35;;;;;;;1.30;1.23;;;11.10;99.90;;;;;;5054372;28;20245;-89
2022/04/07 06:35:04;;;;;;;2.55;1.30;;;11.20;99.90;;;;;;5054458;28;20255;-89
2022/04/07 06:37:33;;;;;;;1.15;1.15;;;11.30;99.90;;;;;;5054661;28;20205;-90
2022/04/07 06:40:03;;;;;;;1.05;1.05;;;11.40;99.90;;;;;;5053963;28;20285;-89
2022/04/07 06:42:31;;;;;;;1.17;1.17;;;11.50;99.90;;;;;;5054173;28;20284;-89
2022/04/07 06:45:00;;;;;;;1.40;1.30;;;11.60;99.90;;;;;;5054066;28;20205;-89
2022/04/07 06:47:37;;;;;;;1.55;1.40;;;11.70;99.90;;;;;;5054102;28;20210;-89
2022/04/07 06:50:06;;;;;;;1.75;1.35;;;11.80;99.90;;;;;;5053948;28;20206;-89
2022/04/07 06:52:36;;;;;;;1.15;1.08;;;11.80;99.90;;;;;;5053915;28;20222;-89
2022/04/07 06:55:05;;;;;;;0.98;0.98;;;11.90;99.90;;;;;;5054124;28;20206;-89
2022/04/07 06:57:47;;;;;;;1.48;1.30;;;12.00;99.90;;;;;;5053904;28;20202;-89
2022/04/07 07:00:17;;;;;;;2.70;1.40;;;12.10;99.90;;;;;;5053828;28;20252;-89
2022/04/07 07:02:51;;;;;;;1.08;1.08;;;12.10;99.90;;;;;;5053949;28;20256;-89
2022/04/07 07:05:21;;;;;;;0.98;0.98;;;12.20;99.90;;;;;;5053662;28;20237;-89
2022/04/07 07:07:50;;;;;;;0.82;0.80;;;12.20;99.90;;;;;;5053331;28;20213;-89
2022/04/07 07:10:21;;;;;;;1.35;1.25;;;12.20;99.90;;;;;;5053379;28;20288;-88
2022/04/07 07:12:50;;;;;;;1.13;1.13;;;12.30;99.90;;;;;;5053489;28;20233;-88
2022/04/07 07:15:21;;;;;;;1.10;1.10;;;12.30;99.90;;;;;;5053358;28;20255;-89
2022/04/07 07:17:51;;;;;;;1.75;1.27;;;12.40;99.90;;;;;;5053607;28;20218;-89
2022/04/07 07:20:20;;;;;;;1.38;1.33;;;12.50;99.90;;;;;;5053355;28;20216;-89
2022/04/07 07:22:48;;;;;;;1.55;1.42;;;12.50;99.90;;;;;;5053713;28;20226;-88
2022/04/07 07:25:17;;;;;;;1.00;0.95;;;12.60;99.90;;;;;;5053034;28;20297;-89
2022/04/07 07:27:47;;;;;;;1.40;1.30;;;12.70;99.90;;;;;;5053771;28;20206;-88
2022/04/07 07:30:18;;;;;;;1.00;1.00;;;12.70;99.90;;;;;;5053976;28;20217;-88
2022/04/07 07:32:48;;;;;;;2.65;1.10;;;12.70;99.90;;;;;;5053804;28;20256;-88
2022/04/07 07:35:18;;;;;;;1.25;1.10;;;12.70;99.90;;;;;;5053332;28;20201;-88
2022/04/07 07:37:51;;;;;;;1.00;1.00;;;12.70;99.90;;;;;;5053213;28;20229;-88
2022/04/07 07:40:22;;;;;;;1.00;1.00;;;12.60;99.90;;;;;;5052776;28;20198;-88
2022/04/07 07:42:53;;;;;;;0.98;0.98;;;12.60;99.90;;;;;;5052895;28;20218;-88
2022/04/07 07:45:21;;;;;;;0.82;0.82;;;12.50;99.90;;;;;;5053201;28;20303;-88
2022/04/07 07:48:09;;;;;;;0.80;0.80;;;12.50;99.90;;;;;;5052830;28;20209;-87
2022/04/07 07:50:45;;;;;;;1.60;1.15;;;12.60;99.90;;;;;;5052866;28;20213;-87
2022/04/07 07:53:17;;;;;;;1.13;1.08;;;12.50;99.90;;;;;;5053071;28;20221;-88
2022/04/07 07:55:46;;;;;;;1.50;1.35;;;12.60;99.90;;;;;;5052933;28;20209;-87
2022/04/07 07:58:15;;;;;;;1.10;1.10;;;12.60;99.90;;;;;;5052733;28;20229;-87
2022/04/07 08:00:43;;;;;;;1.35;1.27;;;12.60;99.90;;;;;;5052617;28;20209;-87
2022/04/07 08:03:11;;;;;;;1.50;1.40;;;12.60;99.90;;;;;;5052770;28;20253;-88
2022/04/07 08:05:42;;;;;;;1.77;1.40;;;12.80;99.90;;;;;;5052637;28;20206;-88
2022/04/07 08:08:11;;;;;;;1.05;1.05;;;12.80;99.90;;;;;;5052881;28;20205;-88
2022/04/07 08:10:40;;;;;;;1.25;1.15;;;13.00;99.90;;;;;;5051984;28;20225;-87
2022/04/07 08:13:10;;;;;;;1.98;1.20;;;13.30;99.90;;;;;;5052332;28;20222;-88
2022/04/07 08:15:38;;;;;;;1.30;1.20;;;13.50;99.90;;;;;;5052567;28;20287;-88
2022/04/07 08:18:08;;;;;;;2.03;1.83;;;13.50;99.90;;;;;;5052449;28;20212;-88
2022/04/07 08:20:37;;;;;;;0.80;0.80;;;13.50;99.90;;;;;;5052374;28;20198;-87
2022/04/07 08:23:07;;;;;;;1.05;1.05;;;13.60;99.90;;;;;;5052461;28;20254;-88
2022/04/07 08:25:35;;;;;;;1.23;0.93;;;13.80;99.90;;;;;;5052340;28;20260;-87
2022/04/07 08:28:04;;;;;;;1.65;1.20;;;13.90;99.90;;;;;;5052440;28;20206;-88
2022/04/07 08:30:34;;;;;;;1.55;1.45;;;14.20;99.90;;;;;;5052203;28;20309;-88
2022/04/07 08:33:03;;;;;;;0.80;0.80;;;15.30;99.90;;;;;;5052214;28;20234;-88
2022/04/07 08:35:32;;;;;;;1.27;1.13;;;16.00;99.90;;;;;;5052618;28;20240;-88
2022/04/07 08:38:15;;;;;;;1.15;1.15;;;15.70;99.90;;;;;;5052780;28;20475;-86
2022/04/07 08:40:44;;;;;;;1.35;1.27;;;15.40;99.90;;;;;;5071754;28;20193;-83
2022/04/07 08:43:13;;;;;;;1.17;1.00;;;15.00;99.90;;;;;;5071030;28;20259;-83
2022/04/07 08:46:09;;;;;;;1.63;1.27;;;14.70;99.90;;;;;;5072667;28;20275;-85
2022/04/07 08:48:53;;;;;;;1.27;1.20;;;14.50;99.90;;;;;;5067354;28;20215;-85
2022/04/07 08:51:34;;;;;;;1.50;1.40;;;14.40;99.90;;;;;;5070954;28;20196;-86
2022/04/07 08:58:25;;;;;;;0.90;0.90;;;14.40;99.90;;;;;;4995235;28;20201;-86
2022/04/07 09:01:07;;;;;;;0.85;0.85;;;15.10;99.90;;;;;;5004893;28;20200;-86
2022/04/07 09:03:53;;;;;;;1.27;1.17;;;15.60;99.90;;;;;;4964143;28;20287;-86
2022/04/07 09:06:25;;;;;;;1.85;0.80;;;16.70;99.90;;;;;;4972088;28;20205;-85
2022/04/07 09:08:54;;;;;;;0.80;0.80;;;17.80;99.90;;;;;;4972009;28;20200;-87
2022/04/07 09:11:22;;;;;;;1.45;1.33;;;18.70;99.90;;;;;;4971743;28;20205;-87
2022/04/07 09:13:54;;;;;;;0.88;0.88;;;19.70;99.90;;;;;;4972130;28;20200;-87
2022/04/07 09:16:27;;;;;;;0.85;0.85;;;20.60;99.90;;;;;;4971811;28;20204;-87
2022/04/07 09:18:56;;;;;;;1.05;0.80;;;20.30;98.40;;;;;;4972156;28;20278;-87
2022/04/07 09:21:31;;;;;;;1.10;1.00;;;19.80;98.60;;;;;;4970143;28;20199;-88
2022/04/07 09:27:41;;;;;;;1.58;1.10;;;20.20;98.70;;;;;;4914522;29;20216;-83
2022/04/07 09:30:23;;;;;;;1.05;1.05;;;20.30;97.80;;;;;;4961115;28;20226;-90
2022/04/07 09:33:42;;;;;;;1.27;1.17;;;20.10;97.40;;;;;;5009545;28;20462;-85
2022/04/07 09:39:44;;;;;;;0.85;0.85;;;18.80;96.90;;;;;;4954662;28;20197;-85
2022/04/07 09:45:16;;;;;;;0.95;0.80;;;18.90;97.40;;;;;;5066317;28;20198;-86
2022/04/07 09:47:46;;;;;;;1.35;0.95;;;18.10;97.70;;;;;;5076389;28;20200;-82
2022/04/07 09:50:22;;;;;;;1.33;1.23;;;17.80;99.20;;;;;;5075854;28;20225;-82
2022/04/07 09:52:59;;;;;;;1.08;1.02;;;17.50;99.90;;;;;;5075796;28;20229;-82
2022/04/07 09:55:30;;;;;;;1.33;0.60;;;17.20;98.80;;;;;;5075960;28;20232;-81
2022/04/07 09:58:02;;;;;;;0.80;0.80;;;16.90;97.80;;;;;;5075888;28;20265;-82
2022/04/07 10:00:32;;;;;;;0.80;0.80;;;17.10;98.10;;;;;;5075764;28;20248;-81
2022/04/07 10:03:02;;;;;;;0.52;0.52;;;17.10;97.50;;;;;;5075664;28;20285;-82
2022/04/07 10:05:32;;;;;;;3.55;0.75;;;17.00;96.90;;;;;;5075892;28;20197;-82
2022/04/07 10:08:03;;;;;;;0.60;0.60;;;17.00;96.20;;;;;;5075512;28;20197;-86
2022/04/07 10:10:32;;;;;;;1.42;1.00;;;17.20;95.50;;;;;;5071205;28;20209;-86
2022/04/07 10:13:01;;;;;;;0.70;0.70;;;17.40;94.90;;;;;;5074155;28;20312;-89
2022/04/07 10:15:30;;;;;;;0.98;0.70;;;17.40;95.00;;;;;;5069773;28;20251;-88
2022/04/07 10:18:04;;;;;;;0.70;0.63;;;17.70;95.00;;;;;;5074836;28;20259;-88
2022/04/07 10:20:36;;;;;;;0.70;0.70;;;17.60;95.40;;;;;;5075284;28;20188;-89
2022/04/07 10:23:16;;;;;;;0.90;0.90;;;17.70;96.00;;;;;;5075290;28;20276;-88
2022/04/07 10:25:50;;;;;;;0.85;0.77;;;17.80;95.70;;;;;;5075420;28;20208;-89
2022/04/07 10:28:20;;;;;;;0.80;0.80;;;18.50;94.90;;;;;;5055617;28;20206;-88
2022/04/07 10:30:49;;;;;;;0.82;0.82;;;18.30;94.30;;;;;;5073636;28;20220;-89
2022/04/07 10:33:42;;;;;;;0.68;0.68;;;18.30;93.30;;;;;;5075080;28;20299;-88
2022/04/07 10:36:17;;;;;;;0.80;0.80;;;17.80;93.60;;;;;;5074789;28;20225;-84
2022/04/07 10:38:50;;;;;;;0.90;0.90;;;17.50;94.20;;;;;;5074955;28;20205;-84
2022/04/07 10:41:43;;;;;;;1.00;1.00;;;17.40;92.70;;;;;;5073772;28;20253;-84
2022/04/07 10:44:13;;;;;;;0.82;0.82;;;17.60;93.30;;;;;;5055123;28;20201;-86
2022/04/07 10:46:42;;;;;;;0.45;0.45;;;18.30;91.90;;;;;;5073311;28;20190;-83
2022/04/07 10:49:11;;;;;;;2.08;0.55;;;19.00;91.60;;;;;;5072593;28;20232;-83
2022/04/07 10:51:44;;;;;;;1.02;0.90;;;19.50;89.40;;;;;;5069277;28;20280;-83
2022/04/07 10:54:14;;;;;;;0.73;0.73;;;19.60;90.50;;;;;;5073998;28;20212;-82
2022/04/07 10:56:48;;;;;;;0.63;0.63;;;20.30;90.00;;;;;;5074004;28;20209;-83
2022/04/07 10:59:21;;;;;;;0.85;0.85;;;21.00;88.40;;;;;;5073485;28;20300;-83
2022/04/07 11:02:05;;;;;;;0.90;0.90;;;21.30;86.20;;;;;;5074676;28;20283;-89
2022/04/07 11:04:59;;;;;;;0.77;0.77;;;21.50;82.80;;;;;;5074851;28;20285;-87
2022/04/07 11:07:28;;;;;;;0.70;0.70;;;21.80;82.00;;;;;;5071761;28;20239;-79
2022/04/07 11:10:13;;;;;;;0.60;0.60;;;22.10;80.10;;;;;;5073036;28;20277;-80
2022/04/07 11:13:00;;;;;;;0.95;0.95;;;22.00;79.10;;;;;;5073847;28;20236;-80
2022/04/07 11:16:07;;;;;;;0.73;0.73;;;21.60;79.00;;;;;;5072011;28;20262;-83
2022/04/07 11:18:55;;;;;;;1.05;1.05;;;21.30;78.00;;;;;;5071316;28;20205;-83
2022/04/07 11:21:45;;;;;;;0.90;0.90;;;21.80;79.60;;;;;;5067903;28;20205;-83
2022/04/07 11:24:23;;;;;;;1.90;1.35;;;22.00;77.50;;;;;;5072713;28;20233;-83
2022/04/07 11:26:55;;;;;;;0.68;0.68;;;22.20;77.80;;;;;;5073956;28;20256;-83
2022/04/07 11:29:34;;;;;;;4.22;1.02;;;22.70;74.40;;;;;;5073252;28;20200;-84
2022/04/07 11:32:09;;;;;;;0.90;0.90;;;23.00;74.90;;;;;;5071140;28;20248;-83
2022/04/07 11:35:11;;;;;;;0.90;0.90;;;22.70;73.70;;;;;;5067467;28;20279;-83
2022/04/07 11:37:41;;;;;;;0.73;0.73;;;21.90;72.00;;;;;;5073093;28;20204;-83
2022/04/07 11:40:10;;;;;;;1.17;1.02;;;21.30;73.90;;;;;;5073829;28;20288;-83
2022/04/07 11:42:40;;;;;;;0.60;0.60;;;21.60;73.70;;;;;;5073599;28;20216;-83
2022/04/07 11:45:10;;;;;;;1.23;0.75;;;21.00;72.90;;;;;;5073895;28;20258;-83
2022/04/07 11:47:38;;;;;;;1.17;1.10;;;20.90;74.30;;;;;;5073561;28;20288;-83
2022/04/07 11:50:09;;;;;;;0.88;0.88;;;20.40;74.40;;;;;;5073476;28;20288;-83
2022/04/07 11:52:37;;;;;;;0.80;0.80;;;20.50;75.70;;;;;;5071843;28;20267;-83
2022/04/07 11:55:07;;;;;;;0.82;0.82;;;20.60;77.60;;;;;;5071931;28;20205;-83
2022/04/07 11:57:36;;;;;;;0.70;0.70;;;20.60;74.20;;;;;;5073324;28;20232;-83
2022/04/07 12:00:10;;;;;;;0.60;0.60;;;20.60;74.30;;;;;;5072803;28;20292;-84
2022/04/07 12:02:40;;;;;;;0.82;0.80;;;20.70;72.20;;;;;;5072951;28;20272;-84
2022/04/07 12:05:11;;;;;;;0.70;0.70;;;20.60;72.40;;;;;;5073122;28;20256;-84
2022/04/07 12:07:40;;;;;;;0.70;0.70;;;20.70;72.90;;;;;;5073003;28;20203;-83
2022/04/07 12:10:16;;;;;;;0.90;0.90;;;20.20;72.20;;;;;;5073340;28;20232;-84
2022/04/07 12:12:44;;;;;;;0.73;0.73;;;20.60;72.50;;;;;;5072392;28;20280;-84
2022/04/07 12:15:17;;;;;;;1.10;0.70;;;21.20;72.60;;;;;;5072616;28;20205;-83
2022/04/07 12:18:01;;;;;;;0.70;0.50;;;21.60;69.40;;;;;;5072290;28;20236;-84
2022/04/07 12:20:31;;;;;;;0.60;0.60;;;21.70;67.60;;;;;;5054702;28;20197;-84
2022/04/07 12:23:07;;;;;;;0.50;0.50;;;21.40;66.90;;;;;;5073263;28;20224;-84
2022/04/07 12:25:36;;;;;;;0.70;0.68;;;20.70;67.40;;;;;;5072836;28;20201;-84
2022/04/07 12:28:08;;;;;;;0.60;0.60;;;20.10;68.10;;;;;;5073010;28;20248;-83
2022/04/07 12:30:45;;;;;;;8.85;0.60;;;19.70;69.00;;;;;;5073014;28;20232;-83
2022/04/07 12:33:37;;;;;;;0.73;0.73;;;19.40;69.60;;;;;;5072627;28;20225;-83
2022/04/07 12:36:05;;;;;;;1.15;0.80;;;19.70;70.30;;;;;;5072024;28;20276;-83
2022/04/07 12:38:34;;;;;;;0.50;0.50;;;20.00;71.40;;;;;;5072476;28;20284;-84
2022/04/07 12:41:13;;;;;;;0.50;0.50;;;20.50;70.50;;;;;;5072480;28;20280;-83
2022/04/07 12:43:46;;;;;;;0.60;0.60;;;20.40;70.40;;;;;;5072946;28;20292;-83
2022/04/07 12:46:16;;;;;;;0.43;0.43;;;20.50;69.40;;;;;;5072962;28;20205;-84
2022/04/07 12:49:07;;;;;;;0.80;0.80;;;20.80;71.30;;;;;;5072637;28;20212;-82
2022/04/07 12:51:37;;;;;;;1.65;0.85;;;21.00;69.10;;;;;;5071947;28;20304;-83
2022/04/07 12:54:11;;;;;;;0.63;0.63;;;21.10;68.50;;;;;;5072795;28;20229;-83
2022/04/07 12:56:40;;;;;;;0.57;0.57;;;21.10;68.50;;;;;;5072868;28;20201;-83
2022/04/07 12:59:14;;;;;;;0.70;0.70;;;20.80;68.20;;;;;;5072653;28;20201;-85
2022/04/07 13:01:49;;;;;;;0.52;0.52;;;20.80;67.60;;;;;;5068647;28;20278;-85
2022/04/07 13:04:17;;;;;;;0.60;0.60;;;20.80;69.00;;;;;;5065530;28;20193;-82
2022/04/07 13:06:46;;;;;;;0.60;0.60;;;20.90;68.10;;;;;;5072921;28;20213;-82
2022/04/07 13:09:16;;;;;;;0.60;0.60;;;21.10;67.00;;;;;;5072868;28;20208;-82
2022/04/07 13:11:45;;;;;;;0.77;0.77;;;20.90;65.30;;;;;;5075437;28;20233;-83
2022/04/07 13:14:13;;;;;;;0.63;0.63;;;20.70;66.70;;;;;;5077009;28;20201;-83
2022/04/07 13:16:46;;;;;;;0.68;0.68;;;21.10;66.20;;;;;;5077391;28;20216;-84
2022/04/07 13:19:15;;;;;;;0.80;0.80;;;20.80;65.60;;;;;;5077746;28;20232;-83
2022/04/07 13:21:44;;;;;;;0.52;0.52;;;20.70;66.80;;;;;;5078487;28;20286;-83
2022/04/07 13:24:12;;;;;;;0.50;0.50;;;20.70;67.20;;;;;;5076954;28;20227;-83